Kezdőlap
METAR-TAF:

METAR-TAF

Repülőterek :

Air Force Base Hoedspruit - Eastgate Airport

Hoedspruit, Dél-afrikai Köztársaság

földrajzi szélesség: 24-21-17S, földrajzi hosszúság: 31-03-01E, magasság: 531 m

Jelenlegi meteorológiai megfigyelések

A jelentés 35 perccel ezelõtt készült, 02:00 UTC
Dél-délkeleti szél 8 kt
Hőmérséklet 18°C
Páratartalom 77%
Légköri nyomás 1024 hPa

METAR: FAHS 230200Z AUTO 16008KT //// // ////// 18/14 Q1024

Idő: 04:35 (02:35 UTC)

Előrejelzés

A jelentés 17 órával és 35 perccel ezelõtt készült, 09:00 UTC
Az előrejelzés 22-én 10 óra UTC és 22-én 18 óra UTC között érvényes
Észak-északnyugati szél 10 kt
Látótávolság 10 km, vagy több
Szórványos felhőzet 2000 lábon
22-én 15 óra UTC és 22-én 17 óra UTC között fokozatosan kialakuló
Különbözõ irányokból fújó szél 3 kt

TAF: FAHS 220900Z 2210/2218 33010KT 9999 SCT020 TX27/2215Z TN17/2218Z BECMG 2215/2217 VRB03KT

Meteorológiai megfigyelések és előrejelzések több, mint 4000 repülőtéren (METAR és TAF jelentéseket).

A térképen piros és sárga pontok jelzik az elérhető meteorológiai állomásokat.

Mozgassa az egeret a pont fölött, hogy megjelenjen az állomás neve.

Azután kattintson az időjárási megfigyelések és előrejelzések megtekintéséhez.

A térkép megváltoztatása: kattintson a fekete keresztel jelölt zöld gombra ráközelítéshez, a vonallal jelölt zöld gombra távolításhoz, vagy a zöld nyilakra a szomszédos térképek eléréséhez.


METAR-TAF: